sensor_id;sensor_type;location;lat;lon;timestamp;temperature;humidity
27188;DHT22;14708;50.872;5.306;2023-08-08T00:01:30;22.00;60.70
27188;DHT22;14708;50.872;5.306;2023-08-08T00:03:55;22.00;60.90
27188;DHT22;14708;50.872;5.306;2023-08-08T00:06:21;22.00;60.80
27188;DHT22;14708;50.872;5.306;2023-08-08T00:08:46;22.00;60.70
27188;DHT22;14708;50.872;5.306;2023-08-08T00:11:12;21.90;60.70
27188;DHT22;14708;50.872;5.306;2023-08-08T00:13:38;21.90;60.90
27188;DHT22;14708;50.872;5.306;2023-08-08T00:16:04;22.00;60.90
27188;DHT22;14708;50.872;5.306;2023-08-08T00:18:30;22.00;60.90
27188;DHT22;14708;50.872;5.306;2023-08-08T00:20:56;22.00;60.80
27188;DHT22;14708;50.872;5.306;2023-08-08T00:23:21;21.90;60.70
27188;DHT22;14708;50.872;5.306;2023-08-08T00:25:47;22.00;60.90
27188;DHT22;14708;50.872;5.306;2023-08-08T00:28:15;21.90;60.70
27188;DHT22;14708;50.872;5.306;2023-08-08T00:30:42;21.90;60.60
27188;DHT22;14708;50.872;5.306;2023-08-08T00:33:07;21.90;61.00
27188;DHT22;14708;50.872;5.306;2023-08-08T00:35:33;21.90;60.70
27188;DHT22;14708;50.872;5.306;2023-08-08T00:37:58;22.00;60.80
27188;DHT22;14708;50.872;5.306;2023-08-08T00:40:24;21.90;60.80
27188;DHT22;14708;50.872;5.306;2023-08-08T00:42:50;21.90;60.90
27188;DHT22;14708;50.872;5.306;2023-08-08T00:45:15;21.90;61.00
27188;DHT22;14708;50.872;5.306;2023-08-08T00:47:41;21.90;60.80
27188;DHT22;14708;50.872;5.306;2023-08-08T00:50:08;21.90;60.70
27188;DHT22;14708;50.872;5.306;2023-08-08T00:52:34;21.90;60.80
27188;DHT22;14708;50.872;5.306;2023-08-08T00:55:00;21.90;60.80
27188;DHT22;14708;50.872;5.306;2023-08-08T00:57:27;21.90;61.00
27188;DHT22;14708;50.872;5.306;2023-08-08T00:59:52;21.90;60.90
27188;DHT22;14708;50.872;5.306;2023-08-08T01:02:19;21.90;60.90
27188;DHT22;14708;50.872;5.306;2023-08-08T01:04:45;21.90;60.90
27188;DHT22;14708;50.872;5.306;2023-08-08T01:10:06;21.90;61.00
27188;DHT22;14708;50.872;5.306;2023-08-08T01:12:55;21.90;60.70
27188;DHT22;14708;50.872;5.306;2023-08-08T01:15:22;21.90;60.90
27188;DHT22;14708;50.872;5.306;2023-08-08T01:17:49;21.90;60.80
27188;DHT22;14708;50.872;5.306;2023-08-08T01:20:16;21.90;60.60
27188;DHT22;14708;50.872;5.306;2023-08-08T01:25:25;21.90;60.70
27188;DHT22;14708;50.872;5.306;2023-08-08T01:27:51;21.90;60.50
27188;DHT22;14708;50.872;5.306;2023-08-08T01:30:16;21.90;60.90
27188;DHT22;14708;50.872;5.306;2023-08-08T01:32:42;21.90;60.70
27188;DHT22;14708;50.872;5.306;2023-08-08T01:35:08;21.90;60.60
27188;DHT22;14708;50.872;5.306;2023-08-08T01:37:41;21.80;60.60
27188;DHT22;14708;50.872;5.306;2023-08-08T01:40:10;21.80;60.70
27188;DHT22;14708;50.872;5.306;2023-08-08T01:42:38;21.80;60.90
27188;DHT22;14708;50.872;5.306;2023-08-08T01:45:04;21.80;60.70
27188;DHT22;14708;50.872;5.306;2023-08-08T01:47:30;21.80;60.50
27188;DHT22;14708;50.872;5.306;2023-08-08T01:49:56;21.80;60.80
27188;DHT22;14708;50.872;5.306;2023-08-08T01:52:21;21.80;60.70
27188;DHT22;14708;50.872;5.306;2023-08-08T01:54:48;21.80;60.70
27188;DHT22;14708;50.872;5.306;2023-08-08T01:57:13;21.80;60.60
27188;DHT22;14708;50.872;5.306;2023-08-08T01:59:39;21.80;60.70
27188;DHT22;14708;50.872;5.306;2023-08-08T02:02:05;21.80;60.70
27188;DHT22;14708;50.872;5.306;2023-08-08T02:04:32;21.80;60.80
27188;DHT22;14708;50.872;5.306;2023-08-08T02:06:57;21.80;60.60
27188;DHT22;14708;50.872;5.306;2023-08-08T02:09:23;21.80;60.70
27188;DHT22;14708;50.872;5.306;2023-08-08T02:11:48;21.80;60.80
27188;DHT22;14708;50.872;5.306;2023-08-08T02:14:14;21.80;60.70
27188;DHT22;14708;50.872;5.306;2023-08-08T02:16:40;21.80;60.80
27188;DHT22;14708;50.872;5.306;2023-08-08T02:19:07;21.80;60.80
27188;DHT22;14708;50.872;5.306;2023-08-08T02:21:33;21.80;60.80
27188;DHT22;14708;50.872;5.306;2023-08-08T02:23:58;21.80;60.80
27188;DHT22;14708;50.872;5.306;2023-08-08T02:26:25;21.80;60.90
27188;DHT22;14708;50.872;5.306;2023-08-08T02:28:50;21.80;60.70
27188;DHT22;14708;50.872;5.306;2023-08-08T02:31:16;21.80;60.70
27188;DHT22;14708;50.872;5.306;2023-08-08T02:33:48;21.80;60.70
27188;DHT22;14708;50.872;5.306;2023-08-08T02:36:14;21.70;60.90
27188;DHT22;14708;50.872;5.306;2023-08-08T02:38:40;21.80;60.90
27188;DHT22;14708;50.872;5.306;2023-08-08T02:41:05;21.80;60.90
27188;DHT22;14708;50.872;5.306;2023-08-08T02:43:31;21.80;60.70
27188;DHT22;14708;50.872;5.306;2023-08-08T02:45:57;21.80;61.70
27188;DHT22;14708;50.872;5.306;2023-08-08T02:48:22;21.80;60.80
27188;DHT22;14708;50.872;5.306;2023-08-08T02:50:48;21.80;60.80
27188;DHT22;14708;50.872;5.306;2023-08-08T02:53:13;21.80;60.70
27188;DHT22;14708;50.872;5.306;2023-08-08T02:55:39;21.80;60.90
27188;DHT22;14708;50.872;5.306;2023-08-08T02:58:05;21.80;60.80
27188;DHT22;14708;50.872;5.306;2023-08-08T03:00:31;21.80;60.80
27188;DHT22;14708;50.872;5.306;2023-08-08T03:02:56;21.80;60.70
27188;DHT22;14708;50.872;5.306;2023-08-08T03:05:22;21.80;60.70
27188;DHT22;14708;50.872;5.306;2023-08-08T03:07:47;21.80;60.70
27188;DHT22;14708;50.872;5.306;2023-08-08T03:10:13;21.80;60.50
27188;DHT22;14708;50.872;5.306;2023-08-08T03:12:39;21.80;60.80
27188;DHT22;14708;50.872;5.306;2023-08-08T03:15:05;21.80;60.60
27188;DHT22;14708;50.872;5.306;2023-08-08T03:17:31;21.70;60.60
27188;DHT22;14708;50.872;5.306;2023-08-08T03:19:57;21.80;60.60
27188;DHT22;14708;50.872;5.306;2023-08-08T03:22:22;21.70;60.60
27188;DHT22;14708;50.872;5.306;2023-08-08T03:24:48;21.80;60.80
27188;DHT22;14708;50.872;5.306;2023-08-08T03:27:14;21.80;60.70
27188;DHT22;14708;50.872;5.306;2023-08-08T03:29:39;21.80;60.70
27188;DHT22;14708;50.872;5.306;2023-08-08T03:32:05;21.80;60.60
27188;DHT22;14708;50.872;5.306;2023-08-08T03:34:31;21.70;60.60
27188;DHT22;14708;50.872;5.306;2023-08-08T03:36:57;21.70;60.60
27188;DHT22;14708;50.872;5.306;2023-08-08T03:39:22;21.70;60.50
27188;DHT22;14708;50.872;5.306;2023-08-08T03:41:48;21.70;60.50
27188;DHT22;14708;50.872;5.306;2023-08-08T03:44:14;21.70;60.50
27188;DHT22;14708;50.872;5.306;2023-08-08T03:46:39;21.70;60.50
27188;DHT22;14708;50.872;5.306;2023-08-08T03:49:05;21.70;60.50
27188;DHT22;14708;50.872;5.306;2023-08-08T03:51:30;21.70;60.20
27188;DHT22;14708;50.872;5.306;2023-08-08T03:53:56;21.70;61.30
27188;DHT22;14708;50.872;5.306;2023-08-08T03:56:22;21.70;60.30
27188;DHT22;14708;50.872;5.306;2023-08-08T03:58:47;21.70;60.40
27188;DHT22;14708;50.872;5.306;2023-08-08T04:01:13;21.70;60.60
27188;DHT22;14708;50.872;5.306;2023-08-08T04:03:38;21.70;60.50
27188;DHT22;14708;50.872;5.306;2023-08-08T04:06:04;21.70;60.60
27188;DHT22;14708;50.872;5.306;2023-08-08T04:08:30;21.70;60.60
27188;DHT22;14708;50.872;5.306;2023-08-08T04:10:56;21.70;60.70
27188;DHT22;14708;50.872;5.306;2023-08-08T04:13:21;21.70;60.70
27188;DHT22;14708;50.872;5.306;2023-08-08T04:15:47;21.70;60.50
27188;DHT22;14708;50.872;5.306;2023-08-08T04:18:13;21.70;60.50
27188;DHT22;14708;50.872;5.306;2023-08-08T04:20:38;21.70;60.30
27188;DHT22;14708;50.872;5.306;2023-08-08T04:23:04;21.70;60.40
27188;DHT22;14708;50.872;5.306;2023-08-08T04:25:30;21.70;60.40
27188;DHT22;14708;50.872;5.306;2023-08-08T04:27:55;21.60;60.50
27188;DHT22;14708;50.872;5.306;2023-08-08T04:30:21;21.60;60.70
27188;DHT22;14708;50.872;5.306;2023-08-08T04:32:47;21.60;60.50
27188;DHT22;14708;50.872;5.306;2023-08-08T04:35:12;21.60;60.70
27188;DHT22;14708;50.872;5.306;2023-08-08T04:37:38;21.70;60.50
27188;DHT22;14708;50.872;5.306;2023-08-08T04:40:04;21.60;60.60
27188;DHT22;14708;50.872;5.306;2023-08-08T04:42:30;21.60;60.50
27188;DHT22;14708;50.872;5.306;2023-08-08T04:44:56;21.70;60.60
27188;DHT22;14708;50.872;5.306;2023-08-08T04:47:22;21.70;60.50
27188;DHT22;14708;50.872;5.306;2023-08-08T04:49:47;21.70;60.40
27188;DHT22;14708;50.872;5.306;2023-08-08T04:52:13;21.70;60.50
27188;DHT22;14708;50.872;5.306;2023-08-08T04:54:38;21.60;60.40
27188;DHT22;14708;50.872;5.306;2023-08-08T04:57:04;21.60;60.60
27188;DHT22;14708;50.872;5.306;2023-08-08T04:59:30;21.60;60.60
27188;DHT22;14708;50.872;5.306;2023-08-08T05:01:56;21.70;60.70
27188;DHT22;14708;50.872;5.306;2023-08-08T05:04:21;21.70;60.60
27188;DHT22;14708;50.872;5.306;2023-08-08T05:06:47;21.70;60.50
27188;DHT22;14708;50.872;5.306;2023-08-08T05:09:12;21.70;60.40
27188;DHT22;14708;50.872;5.306;2023-08-08T05:11:38;21.70;60.20
27188;DHT22;14708;50.872;5.306;2023-08-08T05:14:04;21.70;60.40
27188;DHT22;14708;50.872;5.306;2023-08-08T05:16:29;21.70;60.40
27188;DHT22;14708;50.872;5.306;2023-08-08T05:18:55;21.70;60.60
27188;DHT22;14708;50.872;5.306;2023-08-08T05:21:21;21.70;60.70
27188;DHT22;14708;50.872;5.306;2023-08-08T05:23:47;21.70;60.80
27188;DHT22;14708;50.872;5.306;2023-08-08T05:26:14;21.70;60.40
27188;DHT22;14708;50.872;5.306;2023-08-08T05:28:40;21.80;60.70
27188;DHT22;14708;50.872;5.306;2023-08-08T05:31:06;21.80;60.70
27188;DHT22;14708;50.872;5.306;2023-08-08T05:33:31;21.70;60.90
27188;DHT22;14708;50.872;5.306;2023-08-08T05:35:57;21.80;60.10
27188;DHT22;14708;50.872;5.306;2023-08-08T05:38:22;21.80;61.00
27188;DHT22;14708;50.872;5.306;2023-08-08T05:40:48;21.80;61.00
27188;DHT22;14708;50.872;5.306;2023-08-08T05:43:14;21.70;60.90
27188;DHT22;14708;50.872;5.306;2023-08-08T05:45:44;21.80;60.70
27188;DHT22;14708;50.872;5.306;2023-08-08T05:48:10;21.80;60.60
27188;DHT22;14708;50.872;5.306;2023-08-08T05:50:38;21.80;60.80
27188;DHT22;14708;50.872;5.306;2023-08-08T05:53:05;21.80;60.70
27188;DHT22;14708;50.872;5.306;2023-08-08T05:55:34;21.80;60.70
27188;DHT22;14708;50.872;5.306;2023-08-08T05:58:00;21.90;60.90
27188;DHT22;14708;50.872;5.306;2023-08-08T06:00:25;21.90;60.60
27188;DHT22;14708;50.872;5.306;2023-08-08T06:02:51;21.90;60.30
27188;DHT22;14708;50.872;5.306;2023-08-08T06:05:17;21.90;60.20
27188;DHT22;14708;50.872;5.306;2023-08-08T06:07:43;22.00;60.00
27188;DHT22;14708;50.872;5.306;2023-08-08T06:10:09;22.00;59.80
27188;DHT22;14708;50.872;5.306;2023-08-08T06:12:35;22.10;60.10
27188;DHT22;14708;50.872;5.306;2023-08-08T06:15:01;22.20;60.20
27188;DHT22;14708;50.872;5.306;2023-08-08T06:17:29;22.30;60.70
27188;DHT22;14708;50.872;5.306;2023-08-08T06:19:55;22.30;60.80
27188;DHT22;14708;50.872;5.306;2023-08-08T06:22:22;22.40;60.50
27188;DHT22;14708;50.872;5.306;2023-08-08T06:24:48;22.40;60.60
27188;DHT22;14708;50.872;5.306;2023-08-08T06:27:13;22.40;60.80
27188;DHT22;14708;50.872;5.306;2023-08-08T06:29:39;22.40;60.80
27188;DHT22;14708;50.872;5.306;2023-08-08T06:32:05;22.40;61.00
27188;DHT22;14708;50.872;5.306;2023-08-08T06:34:30;22.40;61.10
27188;DHT22;14708;50.872;5.306;2023-08-08T06:36:56;22.40;61.20
27188;DHT22;14708;50.872;5.306;2023-08-08T06:39:22;22.40;61.00
27188;DHT22;14708;50.872;5.306;2023-08-08T06:41:48;22.50;60.80
27188;DHT22;14708;50.872;5.306;2023-08-08T06:44:13;22.50;60.70
27188;DHT22;14708;50.872;5.306;2023-08-08T06:46:39;22.60;60.60
27188;DHT22;14708;50.872;5.306;2023-08-08T06:49:05;22.60;60.80
27188;DHT22;14708;50.872;5.306;2023-08-08T06:51:32;22.60;61.40
27188;DHT22;14708;50.872;5.306;2023-08-08T06:53:58;22.50;60.90
27188;DHT22;14708;50.872;5.306;2023-08-08T06:56:23;22.60;60.80
27188;DHT22;14708;50.872;5.306;2023-08-08T06:58:51;22.60;60.70
27188;DHT22;14708;50.872;5.306;2023-08-08T07:01:17;22.60;60.90
27188;DHT22;14708;50.872;5.306;2023-08-08T07:03:43;22.60;61.00
27188;DHT22;14708;50.872;5.306;2023-08-08T07:06:09;22.60;61.00
27188;DHT22;14708;50.872;5.306;2023-08-08T07:08:35;22.50;61.30
27188;DHT22;14708;50.872;5.306;2023-08-08T07:11:01;22.60;61.50
27188;DHT22;14708;50.872;5.306;2023-08-08T07:13:26;22.50;61.50
27188;DHT22;14708;50.872;5.306;2023-08-08T07:15:52;22.50;61.60
27188;DHT22;14708;50.872;5.306;2023-08-08T07:18:18;22.50;61.80
27188;DHT22;14708;50.872;5.306;2023-08-08T07:20:44;22.40;61.90
27188;DHT22;14708;50.872;5.306;2023-08-08T07:23:10;22.40;62.00
27188;DHT22;14708;50.872;5.306;2023-08-08T07:25:36;22.40;62.10
27188;DHT22;14708;50.872;5.306;2023-08-08T07:28:01;22.40;61.70
27188;DHT22;14708;50.872;5.306;2023-08-08T07:30:27;22.40;61.60
27188;DHT22;14708;50.872;5.306;2023-08-08T07:32:53;22.50;61.40
27188;DHT22;14708;50.872;5.306;2023-08-08T07:35:19;22.40;61.50
27188;DHT22;14708;50.872;5.306;2023-08-08T07:37:45;22.40;61.50
27188;DHT22;14708;50.872;5.306;2023-08-08T07:40:15;22.30;61.90
27188;DHT22;14708;50.872;5.306;2023-08-08T07:42:40;22.30;62.10
27188;DHT22;14708;50.872;5.306;2023-08-08T07:45:07;22.30;62.00
27188;DHT22;14708;50.872;5.306;2023-08-08T07:47:32;22.30;62.40
27188;DHT22;14708;50.872;5.306;2023-08-08T07:49:58;22.30;62.40
27188;DHT22;14708;50.872;5.306;2023-08-08T07:52:24;22.20;62.40
27188;DHT22;14708;50.872;5.306;2023-08-08T07:54:50;22.20;62.60
27188;DHT22;14708;50.872;5.306;2023-08-08T07:57:16;22.20;62.80
27188;DHT22;14708;50.872;5.306;2023-08-08T07:59:41;22.20;62.80
27188;DHT22;14708;50.872;5.306;2023-08-08T08:02:07;22.20;62.30
27188;DHT22;14708;50.872;5.306;2023-08-08T08:04:33;22.20;62.40
27188;DHT22;14708;50.872;5.306;2023-08-08T08:07:00;22.20;62.50
27188;DHT22;14708;50.872;5.306;2023-08-08T08:09:25;22.10;62.50
27188;DHT22;14708;50.872;5.306;2023-08-08T08:11:51;22.10;62.70
27188;DHT22;14708;50.872;5.306;2023-08-08T08:14:17;22.10;62.70
27188;DHT22;14708;50.872;5.306;2023-08-08T08:16:42;22.10;62.80
27188;DHT22;14708;50.872;5.306;2023-08-08T08:19:08;22.10;62.90
27188;DHT22;14708;50.872;5.306;2023-08-08T08:21:34;22.10;62.80
27188;DHT22;14708;50.872;5.306;2023-08-08T08:24:00;22.20;62.80
27188;DHT22;14708;50.872;5.306;2023-08-08T08:26:26;22.10;62.80
27188;DHT22;14708;50.872;5.306;2023-08-08T08:28:51;22.20;62.90
27188;DHT22;14708;50.872;5.306;2023-08-08T08:31:17;22.10;62.80
27188;DHT22;14708;50.872;5.306;2023-08-08T08:33:43;22.10;62.90
27188;DHT22;14708;50.872;5.306;2023-08-08T08:36:09;22.10;63.00
27188;DHT22;14708;50.872;5.306;2023-08-08T08:38:34;22.20;62.90
27188;DHT22;14708;50.872;5.306;2023-08-08T08:41:02;22.10;62.70
27188;DHT22;14708;50.872;5.306;2023-08-08T08:43:30;22.10;63.60
27188;DHT22;14708;50.872;5.306;2023-08-08T08:46:00;22.10;62.60
27188;DHT22;14708;50.872;5.306;2023-08-08T08:48:28;22.20;62.40
27188;DHT22;14708;50.872;5.306;2023-08-08T08:50:56;22.20;61.90
27188;DHT22;14708;50.872;5.306;2023-08-08T08:53:23;22.20;61.80
27188;DHT22;14708;50.872;5.306;2023-08-08T08:55:51;22.20;62.10
27188;DHT22;14708;50.872;5.306;2023-08-08T08:58:18;22.30;62.90
27188;DHT22;14708;50.872;5.306;2023-08-08T09:00:46;22.40;63.20
27188;DHT22;14708;50.872;5.306;2023-08-08T09:03:13;22.30;63.30
27188;DHT22;14708;50.872;5.306;2023-08-08T09:05:39;22.40;63.30
27188;DHT22;14708;50.872;5.306;2023-08-08T09:08:07;22.40;62.90
27188;DHT22;14708;50.872;5.306;2023-08-08T09:10:34;22.30;63.00
27188;DHT22;14708;50.872;5.306;2023-08-08T09:13:00;22.30;63.20
27188;DHT22;14708;50.872;5.306;2023-08-08T09:15:33;22.20;63.10
27188;DHT22;14708;50.872;5.306;2023-08-08T09:18:00;22.40;62.50
27188;DHT22;14708;50.872;5.306;2023-08-08T09:25:37;22.30;63.10
27188;DHT22;14708;50.872;5.306;2023-08-08T09:28:03;22.30;62.70
27188;DHT22;14708;50.872;5.306;2023-08-08T09:30:28;22.40;62.20
27188;DHT22;14708;50.872;5.306;2023-08-08T09:32:58;22.40;62.20
27188;DHT22;14708;50.872;5.306;2023-08-08T09:35:25;22.30;62.60
27188;DHT22;14708;50.872;5.306;2023-08-08T09:37:53;22.30;62.80
27188;DHT22;14708;50.872;5.306;2023-08-08T09:40:19;22.40;62.30
27188;DHT22;14708;50.872;5.306;2023-08-08T09:42:47;22.40;62.40
27188;DHT22;14708;50.872;5.306;2023-08-08T09:45:14;22.40;60.20
27188;DHT22;14708;50.872;5.306;2023-08-08T09:47:41;22.50;62.10
27188;DHT22;14708;50.872;5.306;2023-08-08T09:50:08;22.50;62.80
27188;DHT22;14708;50.872;5.306;2023-08-08T09:52:35;22.60;62.90
27188;DHT22;14708;50.872;5.306;2023-08-08T09:55:01;22.70;63.20
27188;DHT22;14708;50.872;5.306;2023-08-08T09:57:29;22.70;62.90
27188;DHT22;14708;50.872;5.306;2023-08-08T09:59:55;22.70;63.10
27188;DHT22;14708;50.872;5.306;2023-08-08T10:02:21;22.70;63.20
27188;DHT22;14708;50.872;5.306;2023-08-08T10:04:47;22.70;63.40
27188;DHT22;14708;50.872;5.306;2023-08-08T10:07:14;22.70;63.60
27188;DHT22;14708;50.872;5.306;2023-08-08T10:09:40;22.70;63.90
27188;DHT22;14708;50.872;5.306;2023-08-08T10:12:07;22.70;64.20
27188;DHT22;14708;50.872;5.306;2023-08-08T10:14:38;22.70;63.90
27188;DHT22;14708;50.872;5.306;2023-08-08T10:17:07;22.80;64.20
27188;DHT22;14708;50.872;5.306;2023-08-08T10:19:33;22.80;64.50
27188;DHT22;14708;50.872;5.306;2023-08-08T10:22:05;22.80;64.60
27188;DHT22;14708;50.872;5.306;2023-08-08T10:24:38;22.80;64.60
27188;DHT22;14708;50.872;5.306;2023-08-08T10:27:04;22.90;64.10
27188;DHT22;14708;50.872;5.306;2023-08-08T10:29:32;22.80;64.00
27188;DHT22;14708;50.872;5.306;2023-08-08T10:32:03;22.80;64.40
27188;DHT22;14708;50.872;5.306;2023-08-08T10:34:42;22.80;64.50
27188;DHT22;14708;50.872;5.306;2023-08-08T10:37:16;22.70;64.70
27188;DHT22;14708;50.872;5.306;2023-08-08T10:39:58;22.70;64.90
27188;DHT22;14708;50.872;5.306;2023-08-08T10:42:25;22.70;65.00
27188;DHT22;14708;50.872;5.306;2023-08-08T10:44:56;22.70;65.10
27188;DHT22;14708;50.872;5.306;2023-08-08T10:50:24;22.60;65.20
27188;DHT22;14708;50.872;5.306;2023-08-08T10:52:55;22.60;65.60
27188;DHT22;14708;50.872;5.306;2023-08-08T10:55:25;22.60;65.40
27188;DHT22;14708;50.872;5.306;2023-08-08T11:00:36;22.60;64.70
27188;DHT22;14708;50.872;5.306;2023-08-08T11:03:03;22.60;64.80
27188;DHT22;14708;50.872;5.306;2023-08-08T11:05:31;22.50;65.10
27188;DHT22;14708;50.872;5.306;2023-08-08T11:07:58;22.50;65.40
27188;DHT22;14708;50.872;5.306;2023-08-08T11:10:24;22.60;65.20
27188;DHT22;14708;50.872;5.306;2023-08-08T11:13:00;22.70;65.20
27188;DHT22;14708;50.872;5.306;2023-08-08T11:15:33;22.70;65.20
27188;DHT22;14708;50.872;5.306;2023-08-08T11:18:00;22.70;64.90
27188;DHT22;14708;50.872;5.306;2023-08-08T11:20:29;22.60;65.50
27188;DHT22;14708;50.872;5.306;2023-08-08T11:22:57;22.60;65.20
27188;DHT22;14708;50.872;5.306;2023-08-08T11:25:25;22.60;65.50
27188;DHT22;14708;50.872;5.306;2023-08-08T11:27:52;22.60;65.30
27188;DHT22;14708;50.872;5.306;2023-08-08T11:30:19;22.60;65.60
27188;DHT22;14708;50.872;5.306;2023-08-08T11:32:46;22.60;65.70
27188;DHT22;14708;50.872;5.306;2023-08-08T11:35:15;22.50;66.10
27188;DHT22;14708;50.872;5.306;2023-08-08T11:37:51;22.60;66.00
27188;DHT22;14708;50.872;5.306;2023-08-08T11:40:18;22.60;65.80
27188;DHT22;14708;50.872;5.306;2023-08-08T11:42:45;22.70;64.80
27188;DHT22;14708;50.872;5.306;2023-08-08T11:45:12;22.70;65.30
27188;DHT22;14708;50.872;5.306;2023-08-08T11:48:24;22.80;64.80
27188;DHT22;14708;50.872;5.306;2023-08-08T11:51:15;22.70;65.00
27188;DHT22;14708;50.872;5.306;2023-08-08T11:53:52;22.70;65.50
27188;DHT22;14708;50.872;5.306;2023-08-08T11:56:21;22.70;65.30
27188;DHT22;14708;50.872;5.306;2023-08-08T11:58:49;22.60;65.70
27188;DHT22;14708;50.872;5.306;2023-08-08T12:01:19;22.70;65.80
27188;DHT22;14708;50.872;5.306;2023-08-08T12:03:46;22.70;65.50
27188;DHT22;14708;50.872;5.306;2023-08-08T12:06:16;22.60;65.70
27188;DHT22;14708;50.872;5.306;2023-08-08T12:08:44;22.60;66.20
27188;DHT22;14708;50.872;5.306;2023-08-08T12:11:11;22.60;65.80
27188;DHT22;14708;50.872;5.306;2023-08-08T12:13:50;22.60;66.80
27188;DHT22;14708;50.872;5.306;2023-08-08T12:16:15;22.60;66.00
27188;DHT22;14708;50.872;5.306;2023-08-08T12:18:41;22.60;66.00
27188;DHT22;14708;50.872;5.306;2023-08-08T12:21:30;22.60;66.30
27188;DHT22;14708;50.872;5.306;2023-08-08T12:23:56;22.60;66.00
27188;DHT22;14708;50.872;5.306;2023-08-08T12:26:22;22.60;66.10
27188;DHT22;14708;50.872;5.306;2023-08-08T12:28:48;22.60;66.20
27188;DHT22;14708;50.872;5.306;2023-08-08T12:31:15;22.70;65.80
27188;DHT22;14708;50.872;5.306;2023-08-08T12:33:41;22.70;65.80
27188;DHT22;14708;50.872;5.306;2023-08-08T12:36:07;22.60;65.90
27188;DHT22;14708;50.872;5.306;2023-08-08T12:38:36;22.70;64.50
27188;DHT22;14708;50.872;5.306;2023-08-08T12:41:02;22.80;64.50
27188;DHT22;14708;50.872;5.306;2023-08-08T12:43:28;22.80;65.10
27188;DHT22;14708;50.872;5.306;2023-08-08T12:45:53;22.80;64.90
27188;DHT22;14708;50.872;5.306;2023-08-08T12:48:19;22.80;65.10
27188;DHT22;14708;50.872;5.306;2023-08-08T12:50:45;22.70;64.90
27188;DHT22;14708;50.872;5.306;2023-08-08T12:53:10;22.80;65.30
27188;DHT22;14708;50.872;5.306;2023-08-08T12:55:36;22.80;64.70
27188;DHT22;14708;50.872;5.306;2023-08-08T12:58:03;22.80;65.00
27188;DHT22;14708;50.872;5.306;2023-08-08T13:00:29;22.90;64.50
27188;DHT22;14708;50.872;5.306;2023-08-08T13:02:55;22.80;64.60
27188;DHT22;14708;50.872;5.306;2023-08-08T13:05:20;22.90;65.00
27188;DHT22;14708;50.872;5.306;2023-08-08T13:07:46;23.00;64.80
27188;DHT22;14708;50.872;5.306;2023-08-08T13:10:15;23.00;65.00
27188;DHT22;14708;50.872;5.306;2023-08-08T13:12:42;23.00;65.00
27188;DHT22;14708;50.872;5.306;2023-08-08T13:15:08;23.00;64.90
27188;DHT22;14708;50.872;5.306;2023-08-08T13:17:34;23.00;64.80
27188;DHT22;14708;50.872;5.306;2023-08-08T13:20:00;23.00;64.90
27188;DHT22;14708;50.872;5.306;2023-08-08T13:22:27;23.00;65.40
27188;DHT22;14708;50.872;5.306;2023-08-08T13:24:56;23.00;65.60
27188;DHT22;14708;50.872;5.306;2023-08-08T13:27:31;23.00;65.90
27188;DHT22;14708;50.872;5.306;2023-08-08T13:29:57;23.10;65.80
27188;DHT22;14708;50.872;5.306;2023-08-08T13:32:23;23.10;66.00
27188;DHT22;14708;50.872;5.306;2023-08-08T13:34:51;23.30;65.90
27188;DHT22;14708;50.872;5.306;2023-08-08T13:37:17;23.30;65.70
27188;DHT22;14708;50.872;5.306;2023-08-08T13:39:42;23.20;65.40
27188;DHT22;14708;50.872;5.306;2023-08-08T13:42:09;23.30;65.50
27188;DHT22;14708;50.872;5.306;2023-08-08T13:44:34;23.30;64.70
27188;DHT22;14708;50.872;5.306;2023-08-08T13:47:00;23.20;64.40
27188;DHT22;14708;50.872;5.306;2023-08-08T13:49:26;23.20;64.60
27188;DHT22;14708;50.872;5.306;2023-08-08T13:52:11;23.30;62.70
27188;DHT22;14708;50.872;5.306;2023-08-08T13:54:40;23.30;62.10
27188;DHT22;14708;50.872;5.306;2023-08-08T13:57:06;23.20;62.60
27188;DHT22;14708;50.872;5.306;2023-08-08T13:59:51;23.10;63.30
27188;DHT22;14708;50.872;5.306;2023-08-08T14:02:25;23.10;62.40
27188;DHT22;14708;50.872;5.306;2023-08-08T14:04:50;23.10;62.50
27188;DHT22;14708;50.872;5.306;2023-08-08T14:07:18;23.00;62.60
27188;DHT22;14708;50.872;5.306;2023-08-08T14:09:43;23.10;54.90
27188;DHT22;14708;50.872;5.306;2023-08-08T14:12:09;23.10;56.00
27188;DHT22;14708;50.872;5.306;2023-08-08T14:14:37;23.00;54.30
27188;DHT22;14708;50.872;5.306;2023-08-08T14:17:06;23.00;53.10
27188;DHT22;14708;50.872;5.306;2023-08-08T14:19:32;23.00;52.40
27188;DHT22;14708;50.872;5.306;2023-08-08T14:22:01;23.00;52.40
27188;DHT22;14708;50.872;5.306;2023-08-08T14:24:26;23.00;52.40
27188;DHT22;14708;50.872;5.306;2023-08-08T14:27:21;22.90;53.20
27188;DHT22;14708;50.872;5.306;2023-08-08T14:30:16;22.90;54.20
27188;DHT22;14708;50.872;5.306;2023-08-08T14:33:02;22.80;54.20
27188;DHT22;14708;50.872;5.306;2023-08-08T14:35:28;22.80;54.40
27188;DHT22;14708;50.872;5.306;2023-08-08T14:37:54;22.70;54.60
27188;DHT22;14708;50.872;5.306;2023-08-08T14:40:19;22.80;54.20
27188;DHT22;14708;50.872;5.306;2023-08-08T14:42:45;22.70;53.60
27188;DHT22;14708;50.872;5.306;2023-08-08T14:45:11;22.80;53.60
27188;DHT22;14708;50.872;5.306;2023-08-08T14:47:37;22.70;53.70
27188;DHT22;14708;50.872;5.306;2023-08-08T14:50:02;22.70;53.40
27188;DHT22;14708;50.872;5.306;2023-08-08T14:52:29;22.80;52.80
27188;DHT22;14708;50.872;5.306;2023-08-08T14:54:55;22.70;52.60
27188;DHT22;14708;50.872;5.306;2023-08-08T14:57:20;22.70;52.40
27188;DHT22;14708;50.872;5.306;2023-08-08T14:59:46;22.70;52.90
27188;DHT22;14708;50.872;5.306;2023-08-08T15:02:12;22.70;53.20
27188;DHT22;14708;50.872;5.306;2023-08-08T15:04:38;22.70;53.60
27188;DHT22;14708;50.872;5.306;2023-08-08T15:07:03;22.80;53.40
27188;DHT22;14708;50.872;5.306;2023-08-08T15:09:29;22.70;53.60
27188;DHT22;14708;50.872;5.306;2023-08-08T15:11:55;22.70;54.20
27188;DHT22;14708;50.872;5.306;2023-08-08T15:14:21;22.60;54.70
27188;DHT22;14708;50.872;5.306;2023-08-08T15:16:53;22.70;54.50
27188;DHT22;14708;50.872;5.306;2023-08-08T15:19:22;22.70;55.00
27188;DHT22;14708;50.872;5.306;2023-08-08T15:21:48;22.60;54.60
27188;DHT22;14708;50.872;5.306;2023-08-08T15:24:14;22.60;55.00
27188;DHT22;14708;50.872;5.306;2023-08-08T15:26:40;22.60;54.80
27188;DHT22;14708;50.872;5.306;2023-08-08T15:29:06;22.70;55.30
27188;DHT22;14708;50.872;5.306;2023-08-08T15:31:31;22.60;55.40
27188;DHT22;14708;50.872;5.306;2023-08-08T15:33:58;22.60;55.70
27188;DHT22;14708;50.872;5.306;2023-08-08T15:36:24;22.60;55.90
27188;DHT22;14708;50.872;5.306;2023-08-08T15:38:50;22.70;56.20
27188;DHT22;14708;50.872;5.306;2023-08-08T15:41:15;22.70;56.20
27188;DHT22;14708;50.872;5.306;2023-08-08T15:43:41;22.60;56.20
27188;DHT22;14708;50.872;5.306;2023-08-08T15:46:07;22.60;56.40